createdAt,value
2018-03-17T00:01:27.951Z,96026.08
2018-03-17T00:03:05.337Z,96121.23
2018-03-17T00:04:43.235Z,96132.53
2018-03-17T00:06:21.225Z,96119.61
2018-03-17T00:07:59.387Z,96059.73
2018-03-17T00:09:37.571Z,96033.87
2018-03-17T00:11:14.717Z,95910.08
2018-03-17T00:12:52.196Z,95862.20
2018-03-17T00:14:30.438Z,95886.73
2018-03-17T00:16:08.601Z,95958.11
2018-03-17T00:17:46.106Z,95894.13
2018-03-17T00:19:23.749Z,96018.86
2018-03-17T00:21:01.259Z,95907.00
2018-03-17T00:22:38.538Z,95959.84
2018-03-17T00:24:15.985Z,95995.97
2018-03-17T00:25:54.705Z,95939.68
2018-03-17T00:27:31.965Z,95931.83
2018-03-17T00:29:09.239Z,95943.96
2018-03-17T00:30:47.216Z,96024.34
2018-03-17T00:32:24.881Z,95982.31
2018-03-17T00:34:02.360Z,95993.42
2018-03-17T00:35:39.905Z,96005.06
2018-03-17T00:37:17.638Z,95895.83
2018-03-17T00:38:55.161Z,95888.93
2018-03-17T00:40:32.861Z,95891.51
2018-03-17T00:42:10.624Z,95946.16
2018-03-17T00:43:48.186Z,95803.77
2018-03-17T00:45:27.983Z,95703.72
2018-03-17T00:47:05.861Z,95735.47
2018-03-17T00:48:43.474Z,95838.16
2018-03-17T00:50:21.547Z,95928.01
2018-03-17T00:51:59.957Z,95900.88
2018-03-17T00:53:37.418Z,95837.34
2018-03-17T00:55:15.551Z,95922.45
2018-03-17T00:56:53.056Z,95880.66
2018-03-17T00:58:31.679Z,95742.40
2018-03-17T01:00:10.029Z,95681.33
2018-03-17T01:01:47.686Z,95726.47
2018-03-17T01:03:25.145Z,95716.55
2018-03-17T01:05:04.500Z,95818.41
2018-03-17T01:06:42.021Z,95702.77
2018-03-17T01:08:19.862Z,95729.44
2018-03-17T01:09:57.421Z,95744.87
2018-03-17T01:11:36.034Z,95816.25
2018-03-17T01:13:14.800Z,95849.34
2018-03-17T01:14:56.871Z,95679.98
2018-03-17T01:16:36.621Z,95618.59
2018-03-17T01:18:16.297Z,95640.58
2018-03-17T01:19:58.709Z,95658.13
2018-03-17T01:21:40.478Z,95741.91
2018-03-17T01:23:25.484Z,95892.68
2018-03-17T01:25:06.327Z,95878.96
2018-03-17T01:26:49.312Z,95888.93
2018-03-17T01:28:33.877Z,95912.94
2018-03-17T01:30:15.062Z,95847.14
2018-03-17T01:31:56.096Z,95911.70
2018-03-17T01:33:35.007Z,95871.61
2018-03-17T01:35:13.973Z,95731.13
2018-03-17T01:36:52.075Z,95684.79
2018-03-17T01:38:31.507Z,95736.78
2018-03-17T01:40:10.883Z,95767.27
2018-03-17T01:41:50.681Z,95765.12
2018-03-17T01:43:28.302Z,95746.98
2018-03-17T01:45:06.443Z,95713.57
2018-03-17T01:46:45.090Z,95673.14
2018-03-17T01:48:22.832Z,95764.30
2018-03-17T01:50:00.811Z,95841.16
2018-03-17T01:51:39.338Z,95676.98
2018-03-17T01:53:18.440Z,95646.05
2018-03-17T01:54:55.925Z,95590.74
2018-03-17T01:56:33.577Z,95571.83
2018-03-17T01:58:12.992Z,95598.47
2018-03-17T01:59:51.107Z,95718.23
2018-03-17T02:01:28.964Z,95835.51
2018-03-17T02:03:07.003Z,95715.20
2018-03-17T02:04:44.573Z,95553.80
2018-03-17T02:06:22.540Z,95594.16
2018-03-17T02:08:00.397Z,95695.84
2018-03-17T02:09:37.955Z,95681.72
2018-03-17T02:11:15.713Z,95648.17
2018-03-17T02:12:53.987Z,95616.01
2018-03-17T02:14:32.488Z,95659.36
2018-03-17T02:16:10.645Z,95534.03
2018-03-17T02:17:48.356Z,95549.09
2018-03-17T02:19:26.712Z,95561.94
2018-03-17T02:21:04.444Z,95649.98
2018-03-17T02:22:41.904Z,95564.52
2018-03-17T02:24:19.514Z,95548.22
2018-03-17T02:26:02.785Z,95549.91
2018-03-17T02:29:21.581Z,95552.13
2018-03-17T02:30:59.625Z,95467.97
2018-03-17T02:32:37.464Z,95477.84
2018-03-17T02:34:15.080Z,95495.44
2018-03-17T02:35:53.022Z,95600.05
2018-03-17T02:37:31.513Z,95524.19
2018-03-17T02:39:09.408Z,95545.64
2018-03-17T02:40:46.444Z,95632.32
2018-03-17T02:42:24.515Z,95521.97
2018-03-17T02:44:02.824Z,95367.20
2018-03-17T02:45:41.554Z,95378.73
2018-03-17T02:47:20.054Z,95455.63
2018-03-17T02:48:58.340Z,95398.90
2018-03-17T02:50:35.862Z,95396.81
2018-03-17T02:52:13.610Z,95456.82
2018-03-17T02:53:51.567Z,95421.25
2018-03-17T02:55:30.259Z,95388.67
2018-03-17T02:57:07.778Z,95354.80
2018-03-17T02:58:45.661Z,95394.62
2018-03-17T03:00:25.364Z,95422.94
2018-03-17T03:02:03.070Z,95345.28
2018-03-17T03:03:40.440Z,95409.23
2018-03-17T03:05:18.560Z,95374.50
2018-03-17T03:06:55.769Z,95284.52
2018-03-17T03:08:33.327Z,95277.61
2018-03-17T03:10:11.185Z,95335.45
2018-03-17T03:11:48.433Z,95291.35
2018-03-17T03:13:25.565Z,95406.58
2018-03-17T03:15:02.622Z,95417.33
2018-03-17T03:16:40.837Z,95394.20
2018-03-17T03:18:18.408Z,95320.09
2018-03-17T03:19:55.224Z,95338.49
2018-03-17T03:21:32.069Z,95290.93
2018-03-17T03:23:08.975Z,95326.93
2018-03-17T03:24:46.631Z,95436.66
2018-03-17T03:26:23.330Z,95520.31
2018-03-17T03:28:00.348Z,95539.15
2018-03-17T03:29:38.422Z,95512.59
2018-03-17T03:31:16.265Z,95414.80
2018-03-17T03:32:53.661Z,95333.73
2018-03-17T03:34:32.227Z,95356.84
2018-03-17T03:36:10.851Z,95254.93
2018-03-17T03:37:49.364Z,95232.71
2018-03-17T03:39:26.596Z,95335.87
2018-03-17T03:41:03.394Z,95316.98
2018-03-17T03:42:40.180Z,95294.73
2018-03-17T03:44:17.912Z,95259.22
2018-03-17T03:45:56.285Z,95211.69
2018-03-17T03:47:33.381Z,95201.06
2018-03-17T03:49:10.861Z,95353.92
2018-03-17T03:50:48.615Z,95299.02
2018-03-17T03:52:25.768Z,95272.89
2018-03-17T03:54:03.116Z,95143.99
2018-03-17T03:55:39.695Z,95223.66
2018-03-17T03:57:16.997Z,95300.72
2018-03-17T03:58:53.968Z,95356.46
2018-03-17T04:00:31.060Z,95358.53
2018-03-17T04:02:07.692Z,95329.05
2018-03-17T04:03:44.704Z,95276.34
2018-03-17T04:05:21.944Z,95277.95
2018-03-17T04:06:59.281Z,95279.30
2018-03-17T04:08:36.795Z,95237.81
2018-03-17T04:10:14.457Z,95177.89
2018-03-17T04:11:51.210Z,95131.95
2018-03-17T04:13:27.986Z,95175.21
2018-03-17T04:15:05.334Z,95314.00
2018-03-17T04:16:44.468Z,95211.30
2018-03-17T04:18:21.911Z,95193.70
2018-03-17T04:19:58.550Z,95258.34
2018-03-17T04:21:36.036Z,95191.09
2018-03-17T04:23:14.292Z,95228.80
2018-03-17T04:24:51.046Z,95203.52
2018-03-17T04:26:27.920Z,95203.09
2018-03-17T04:28:05.009Z,95301.22
2018-03-17T04:29:42.517Z,95215.52
2018-03-17T04:31:20.045Z,95219.86
2018-03-17T04:32:56.741Z,95264.41
2018-03-17T04:34:33.421Z,95214.26
2018-03-17T04:37:45.861Z,95202.59
2018-03-17T04:39:23.428Z,95186.83
2018-03-17T04:41:00.183Z,95167.16
2018-03-17T04:42:38.035Z,95197.11
2018-03-17T04:44:15.796Z,95227.95
2018-03-17T04:45:59.127Z,95191.55
2018-03-17T04:47:35.804Z,95240.34
2018-03-17T04:49:12.923Z,95291.27
2018-03-17T04:50:49.951Z,95191.13
2018-03-17T04:52:26.772Z,95156.88
2018-03-17T04:54:03.419Z,95114.89
2018-03-17T04:55:40.962Z,95194.96
2018-03-17T04:57:18.456Z,95203.48
2018-03-17T04:58:55.501Z,95123.44
2018-03-17T05:00:32.848Z,95197.98
2018-03-17T05:02:10.044Z,95249.41
2018-03-17T05:03:47.843Z,95120.03
2018-03-17T05:05:24.716Z,95042.56
2018-03-17T05:07:02.147Z,95019.57
2018-03-17T05:08:38.901Z,94975.05
2018-03-17T05:10:15.761Z,95031.48
2018-03-17T05:11:52.933Z,95157.69
2018-03-17T05:13:29.782Z,95168.84
2018-03-17T05:15:07.680Z,95190.25
2018-03-17T05:16:44.997Z,95061.84
2018-03-17T05:18:22.934Z,95065.25
2018-03-17T05:19:59.559Z,95064.10
2018-03-17T05:21:38.036Z,95061.45
2018-03-17T05:23:18.775Z,95195.84
2018-03-17T05:24:55.505Z,95269.86
2018-03-17T05:26:33.913Z,95198.80
2018-03-17T05:29:49.788Z,95202.33
2018-03-17T05:31:26.512Z,95221.13
2018-03-17T05:33:03.245Z,95167.08
2018-03-17T05:34:41.187Z,95143.57
2018-03-17T05:36:18.172Z,95232.17
2018-03-17T05:37:55.750Z,95088.02
2018-03-17T05:39:33.108Z,94969.54
2018-03-17T05:41:10.760Z,94922.93
2018-03-17T05:42:48.389Z,95023.37
2018-03-17T05:44:26.063Z,95087.83
2018-03-17T05:46:03.379Z,95031.91
2018-03-17T05:47:40.831Z,95000.22
2018-03-17T05:49:18.605Z,95041.69
2018-03-17T05:50:56.296Z,95027.58
2018-03-17T05:52:34.182Z,94937.45
2018-03-17T05:54:13.053Z,94993.09
2018-03-17T05:55:50.336Z,94960.92
2018-03-17T05:57:27.694Z,94940.39
2018-03-17T05:59:05.277Z,94996.43
2018-03-17T06:00:43.551Z,94896.02
2018-03-17T06:02:21.301Z,94862.17
2018-03-17T06:03:58.421Z,94904.59
2018-03-17T06:05:35.636Z,95014.31
2018-03-17T06:07:12.994Z,95053.30
2018-03-17T06:08:51.076Z,94977.55
2018-03-17T06:10:52.030Z,95016.46
2018-03-17T06:12:29.819Z,94975.05
2018-03-17T06:14:54.793Z,94909.69
2018-03-17T06:16:33.121Z,94905.89
2018-03-17T06:18:11.081Z,95001.17
2018-03-17T06:19:48.317Z,94962.27
2018-03-17T06:21:25.882Z,94923.77
2018-03-17T06:23:03.138Z,95013.05
2018-03-17T06:24:41.863Z,95043.87
2018-03-17T06:26:19.283Z,95005.81
2018-03-17T06:27:56.621Z,95061.45
2018-03-17T06:29:34.221Z,94943.42
2018-03-17T06:31:13.101Z,94940.86
2018-03-17T06:32:51.070Z,94980.16
2018-03-17T06:34:28.623Z,94866.49
2018-03-17T06:36:11.400Z,94839.21
2018-03-17T06:37:49.702Z,94853.72
2018-03-17T06:39:29.770Z,94916.08
2018-03-17T06:41:08.408Z,94900.22
2018-03-17T06:42:51.281Z,94904.59
2018-03-17T06:44:30.524Z,94988.69
2018-03-17T06:46:12.046Z,94990.88
2018-03-17T06:47:56.732Z,94885.18
2018-03-17T06:49:53.513Z,94874.58
2018-03-17T06:51:32.133Z,94929.33
2018-03-17T06:53:10.711Z,95080.31
2018-03-17T06:54:48.651Z,95068.28
2018-03-17T06:56:27.024Z,94945.48
2018-03-17T06:58:06.737Z,94921.70
2018-03-17T06:59:45.301Z,94993.02
2018-03-17T07:01:24.519Z,94955.41
2018-03-17T07:03:02.799Z,94904.09
2018-03-17T07:04:42.589Z,94895.94
2018-03-17T07:06:21.360Z,94916.50
2018-03-17T07:07:59.800Z,94836.95
2018-03-17T07:09:44.156Z,94813.53
2018-03-17T07:11:22.795Z,94813.45
2018-03-17T07:13:01.228Z,94855.73
2018-03-17T07:14:39.401Z,94925.95
2018-03-17T07:16:17.782Z,94890.96
2018-03-17T07:17:59.521Z,94863.82
2018-03-17T07:19:37.823Z,94848.13
2018-03-17T07:21:16.988Z,94868.61
2018-03-17T07:23:11.245Z,94917.30
2018-03-17T07:24:51.127Z,94928.86
2018-03-17T07:26:29.542Z,94949.02
2018-03-17T07:28:11.100Z,94986.55
2018-03-17T07:29:51.051Z,94969.50
2018-03-17T07:31:31.781Z,95061.77
2018-03-17T07:33:10.175Z,94942.53
2018-03-17T07:34:49.601Z,94793.41
2018-03-17T07:36:27.436Z,94772.09
2018-03-17T07:38:07.414Z,94748.19
2018-03-17T07:39:45.323Z,94746.92
2018-03-17T07:41:31.615Z,94777.64
2018-03-17T07:43:09.545Z,94721.27
2018-03-17T07:44:47.129Z,94670.45
2018-03-17T07:46:24.695Z,94712.35
2018-03-17T07:48:03.767Z,94755.38
2018-03-17T07:49:45.085Z,94711.40
2018-03-17T07:51:22.332Z,94784.45
2018-03-17T07:53:00.301Z,94781.94
2018-03-17T07:54:37.862Z,94832.36
2018-03-17T07:56:16.237Z,94935.22
2018-03-17T07:57:54.360Z,94828.45
2018-03-17T07:59:32.024Z,94839.17
2018-03-17T08:01:11.980Z,94757.10
2018-03-17T08:02:52.659Z,94800.75
2018-03-17T08:04:30.771Z,94799.33
2018-03-17T08:06:10.175Z,94809.67
2018-03-17T08:07:48.525Z,94766.09
2018-03-17T08:09:25.868Z,94804.13
2018-03-17T08:11:03.324Z,94837.83
2018-03-17T08:12:40.873Z,94920.70
2018-03-17T08:14:19.044Z,94905.39
2018-03-17T08:15:56.930Z,94925.42
2018-03-17T08:17:34.397Z,94948.97
2018-03-17T08:19:11.916Z,94958.78
2018-03-17T08:20:49.595Z,94816.05
2018-03-17T08:22:26.965Z,94792.18
2018-03-17T08:24:04.446Z,94702.91
2018-03-17T08:25:41.610Z,94706.30
2018-03-17T08:27:19.312Z,94706.39
2018-03-17T08:28:56.721Z,94629.97
2018-03-17T08:30:34.507Z,94626.95
2018-03-17T08:32:12.333Z,94642.81
2018-03-17T08:33:51.855Z,94632.53
2018-03-17T08:35:30.040Z,94648.28
2018-03-17T08:37:07.469Z,94614.14
2018-03-17T08:38:46.864Z,94668.84
2018-03-17T08:40:25.111Z,94757.17
2018-03-17T08:42:02.427Z,94710.98
2018-03-17T08:43:39.548Z,94717.48
2018-03-17T08:45:20.641Z,94673.47
2018-03-17T08:46:59.722Z,94720.42
2018-03-17T08:48:37.860Z,94681.57
2018-03-17T08:50:15.215Z,94655.12
2018-03-17T08:51:54.593Z,94625.80
2018-03-17T08:53:32.033Z,94617.20
2018-03-17T08:55:09.390Z,94635.89
2018-03-17T08:56:46.873Z,94633.70
2018-03-17T08:58:24.149Z,94627.06
2018-03-17T09:00:01.552Z,94659.82
2018-03-17T09:01:39.069Z,94647.81
2018-03-17T09:03:16.252Z,94627.79
2018-03-17T09:04:53.412Z,94650.45
2018-03-17T09:06:31.104Z,94664.06
2018-03-17T09:08:08.292Z,94631.27
2018-03-17T09:09:45.630Z,94636.39
2018-03-17T09:11:22.737Z,94700.80
2018-03-17T09:13:00.328Z,94801.52
2018-03-17T09:14:37.448Z,94816.36
2018-03-17T09:16:15.265Z,94798.41
2018-03-17T09:17:54.027Z,94682.79
2018-03-17T09:19:31.460Z,94683.67
2018-03-17T09:21:08.688Z,94626.53
2018-03-17T09:22:46.070Z,94632.95
2018-03-17T09:24:26.811Z,94708.45
2018-03-17T09:26:04.071Z,94665.78
2018-03-17T09:27:42.294Z,94601.00
2018-03-17T09:29:19.559Z,94632.91
2018-03-17T09:30:58.072Z,94729.25
2018-03-17T09:32:36.422Z,94796.73
2018-03-17T09:34:13.546Z,94696.52
2018-03-17T09:35:50.636Z,94674.81
2018-03-17T09:37:27.931Z,94667.89
2018-03-17T09:39:06.509Z,94630.34
2018-03-17T09:40:43.560Z,94690.48
2018-03-17T09:42:20.681Z,94712.28
2018-03-17T09:43:57.676Z,94712.28
2018-03-17T09:45:35.902Z,94635.09
2018-03-17T09:47:13.045Z,94638.48
2018-03-17T09:48:50.987Z,94637.19
2018-03-17T09:50:28.517Z,94649.08
2018-03-17T09:52:06.873Z,94704.67
2018-03-17T09:53:44.732Z,94801.90
2018-03-17T09:55:22.093Z,94787.44
2018-03-17T09:56:59.440Z,94699.47
2018-03-17T09:58:36.851Z,94620.91
2018-03-17T10:00:15.837Z,94597.09
2018-03-17T10:01:53.305Z,94707.61
2018-03-17T10:03:30.709Z,94719.08
2018-03-17T10:05:07.956Z,94666.09
2018-03-17T10:06:45.020Z,94661.88
2018-03-17T10:08:22.182Z,94676.03
2018-03-17T10:09:59.411Z,94710.98
2018-03-17T10:11:37.802Z,94694.34
2018-03-17T10:13:14.924Z,94649.58
2018-03-17T10:14:52.109Z,94701.56
2018-03-17T10:16:30.248Z,94688.80
2018-03-17T10:18:07.983Z,94689.34
2018-03-17T10:19:45.056Z,94782.31
2018-03-17T10:21:25.255Z,94900.98
2018-03-17T10:23:03.639Z,94744.28
2018-03-17T10:24:42.368Z,94696.86
2018-03-17T10:26:22.907Z,94673.52
2018-03-17T10:28:03.793Z,94650.80
2018-03-17T10:29:43.946Z,94644.95
2018-03-17T10:31:22.351Z,94616.33
2018-03-17T10:33:02.084Z,94719.55
2018-03-17T10:34:41.005Z,94683.59
2018-03-17T10:36:18.370Z,94609.48
2018-03-17T10:37:55.830Z,94565.13
2018-03-17T10:39:36.038Z,94575.36
2018-03-17T10:41:15.004Z,94647.81
2018-03-17T10:42:55.265Z,94671.95
2018-03-17T10:44:32.430Z,94641.13
2018-03-17T10:46:12.474Z,94776.34
2018-03-17T10:47:53.055Z,94748.11
2018-03-17T10:49:34.310Z,94738.28
2018-03-17T10:51:14.182Z,94843.42
2018-03-17T10:52:54.729Z,94886.78
2018-03-17T10:54:33.343Z,94795.47
2018-03-17T10:56:13.178Z,94746.05
2018-03-17T10:59:40.690Z,94785.21
2018-03-17T11:01:22.148Z,94767.73
2018-03-17T11:03:00.215Z,94814.64
2018-03-17T11:04:37.465Z,94719.00
2018-03-17T11:06:14.572Z,94694.26
2018-03-17T11:07:52.696Z,94704.97
2018-03-17T11:09:29.822Z,94705.42
2018-03-17T11:11:08.425Z,94669.61
2018-03-17T11:12:46.961Z,94704.05
2018-03-17T11:14:24.193Z,94702.06
2018-03-17T11:16:01.288Z,94757.82
2018-03-17T11:17:39.291Z,94714.84
2018-03-17T11:19:17.178Z,94670.45
2018-03-17T11:20:54.506Z,94650.80
2018-03-17T11:22:31.741Z,94675.61
2018-03-17T11:24:08.738Z,94791.22
2018-03-17T11:25:46.338Z,94769.45
2018-03-17T11:27:26.105Z,94693.00
2018-03-17T11:29:05.748Z,94752.31
2018-03-17T11:30:43.632Z,94741.77
2018-03-17T11:32:21.336Z,94676.03
2018-03-17T11:33:58.547Z,94717.82
2018-03-17T11:35:35.704Z,94743.02
2018-03-17T11:37:12.740Z,94699.42
2018-03-17T11:38:49.929Z,94683.25
2018-03-17T11:40:27.269Z,94626.91
2018-03-17T11:42:04.382Z,94668.77
2018-03-17T11:43:41.844Z,94783.11
2018-03-17T11:45:20.064Z,94821.06
2018-03-17T11:46:57.832Z,94740.42
2018-03-17T11:48:35.118Z,94709.67
2018-03-17T11:50:14.473Z,94713.45
2018-03-17T11:53:36.096Z,94749.41
2018-03-17T11:55:13.300Z,94734.42
2018-03-17T11:56:50.755Z,94687.50
2018-03-17T11:58:27.652Z,94786.09
2018-03-17T12:00:04.986Z,94872.31
2018-03-17T12:01:42.663Z,94830.48
2018-03-17T12:03:20.951Z,94821.06
2018-03-17T12:04:58.853Z,94796.38
2018-03-17T12:06:36.871Z,94830.90
2018-03-17T12:08:14.984Z,94816.78
2018-03-17T12:09:54.709Z,94771.13
2018-03-17T12:11:33.264Z,94725.88
2018-03-17T12:13:13.213Z,94716.98
2018-03-17T12:14:50.615Z,94693.42
2018-03-17T12:16:28.736Z,94689.64
2018-03-17T12:18:05.884Z,94698.16
2018-03-17T12:19:43.043Z,94686.69
2018-03-17T12:21:20.394Z,94731.39
2018-03-17T12:22:57.483Z,94706.19
2018-03-17T12:24:34.478Z,94741.27
2018-03-17T12:26:11.488Z,94803.58
2018-03-17T12:27:49.058Z,94757.86
2018-03-17T12:29:27.053Z,94785.21
2018-03-17T12:31:06.198Z,94854.44
2018-03-17T12:32:44.824Z,94764.25
2018-03-17T12:34:24.947Z,94758.32
2018-03-17T12:36:03.178Z,94850.11
2018-03-17T12:37:41.083Z,94765.63
2018-03-17T12:39:20.856Z,94735.34
2018-03-17T12:40:58.458Z,94737.44
2018-03-17T12:42:35.715Z,94693.84
2018-03-17T12:44:14.505Z,94711.31
2018-03-17T12:45:51.799Z,94710.98
2018-03-17T12:47:30.845Z,94750.25
2018-03-17T12:49:07.969Z,94734.84
2018-03-17T12:50:45.524Z,94771.21
2018-03-17T12:52:22.602Z,94834.80
2018-03-17T12:54:01.829Z,94781.81
2018-03-17T12:55:39.741Z,94771.06
2018-03-17T12:57:19.223Z,94733.03
2018-03-17T12:58:56.347Z,94758.28
2018-03-17T13:00:35.663Z,94762.11
2018-03-17T13:02:15.468Z,94849.73
2018-03-17T13:03:52.719Z,94823.21
2018-03-17T13:05:30.755Z,94832.20
2018-03-17T13:07:08.833Z,94777.48
2018-03-17T13:08:46.127Z,94715.59
2018-03-17T13:10:23.864Z,94686.49
2018-03-17T13:12:02.301Z,94781.84
2018-03-17T13:13:39.697Z,94804.84
2018-03-17T13:15:19.138Z,94851.41
2018-03-17T13:16:57.220Z,94854.36
2018-03-17T13:18:34.763Z,94895.81
2018-03-17T13:20:11.882Z,94875.38
2018-03-17T13:21:49.445Z,94887.20
2018-03-17T13:23:27.227Z,94893.71
2018-03-17T13:25:07.098Z,94880.81
2018-03-17T13:26:52.818Z,94765.09
2018-03-17T13:28:30.388Z,94776.34
2018-03-17T13:30:09.688Z,94767.35
2018-03-17T13:31:47.147Z,94780.51
2018-03-17T13:33:24.332Z,94749.75
2018-03-17T13:35:01.439Z,94812.53
2018-03-17T13:37:44.116Z,94756.69
2018-03-17T13:39:21.210Z,94739.16
2018-03-17T13:40:59.531Z,94753.58
2018-03-17T13:42:41.128Z,94837.30
2018-03-17T13:44:18.993Z,94774.62
2018-03-17T13:45:56.225Z,94746.77
2018-03-17T13:47:33.374Z,94745.50
2018-03-17T13:49:11.548Z,94795.85
2018-03-17T13:50:57.339Z,94899.27
2018-03-17T13:52:39.211Z,94869.29
2018-03-17T13:54:25.689Z,94780.93
2018-03-17T13:56:07.279Z,94807.41
2018-03-17T13:57:45.757Z,94789.12
2018-03-17T13:59:26.240Z,94793.83
2018-03-17T14:01:05.728Z,94732.66
2018-03-17T14:02:42.925Z,94724.58
2018-03-17T14:04:20.057Z,94743.36
2018-03-17T14:05:58.669Z,94741.27
2018-03-17T14:07:35.804Z,94769.91
2018-03-17T14:09:14.039Z,94727.95
2018-03-17T14:10:51.220Z,94699.88
2018-03-17T14:12:28.771Z,94678.92
2018-03-17T14:14:07.576Z,94632.45
2018-03-17T14:15:45.026Z,94617.12
2018-03-17T14:17:22.126Z,94661.38
2018-03-17T14:19:00.490Z,94650.33
2018-03-17T14:20:38.449Z,94680.23
2018-03-17T14:22:15.518Z,94689.59
2018-03-17T14:23:52.677Z,94682.38
2018-03-17T14:25:29.940Z,94751.48
2018-03-17T14:27:13.506Z,94703.66
2018-03-17T14:28:50.711Z,94686.49
2018-03-17T14:30:30.918Z,94692.12
2018-03-17T14:32:10.176Z,94742.10
2018-03-17T14:33:48.823Z,94726.65
2018-03-17T14:35:26.165Z,94700.72
2018-03-17T14:37:03.730Z,94752.31
2018-03-17T14:38:40.920Z,94752.73
2018-03-17T14:40:18.781Z,94786.47
2018-03-17T14:41:56.691Z,94740.30
2018-03-17T14:43:34.940Z,94732.70
2018-03-17T14:45:12.139Z,94750.13
2018-03-17T14:46:50.841Z,94724.47
2018-03-17T14:48:28.544Z,94724.58
2018-03-17T14:50:09.550Z,94735.17
2018-03-17T14:51:49.825Z,94812.03
2018-03-17T14:53:27.870Z,94827.91
2018-03-17T14:55:06.279Z,94750.67
2018-03-17T14:56:45.814Z,94789.03
2018-03-17T14:58:23.451Z,94858.19
2018-03-17T15:00:00.638Z,94800.17
2018-03-17T15:01:38.056Z,94716.81
2018-03-17T15:03:16.075Z,94708.38
2018-03-17T15:04:53.165Z,94670.74
2018-03-17T15:06:30.272Z,94692.16
2018-03-17T15:08:07.457Z,94702.87
2018-03-17T15:09:44.519Z,94643.87
2018-03-17T15:11:21.550Z,94631.95
2018-03-17T15:12:58.601Z,94649.45
2018-03-17T15:14:37.447Z,94636.23
2018-03-17T15:16:15.184Z,94685.70
2018-03-17T15:17:56.225Z,94760.34
2018-03-17T15:19:33.866Z,94740.30
2018-03-17T15:21:11.203Z,94692.58
2018-03-17T15:22:54.277Z,94722.44
2018-03-17T15:24:35.385Z,94731.73
2018-03-17T15:26:12.510Z,94817.66
2018-03-17T15:27:50.701Z,94786.94
2018-03-17T15:29:28.235Z,94756.14
2018-03-17T15:31:06.777Z,94779.20
2018-03-17T15:32:43.719Z,94674.23
2018-03-17T15:34:20.602Z,94633.20
2018-03-17T15:35:59.211Z,94661.26
2018-03-17T15:38:01.234Z,94674.11
2018-03-17T15:39:47.386Z,94776.22
2018-03-17T15:41:25.239Z,94748.45
2018-03-17T15:43:04.112Z,94715.55
2018-03-17T15:44:41.748Z,94693.38
2018-03-17T15:46:21.402Z,94683.59
2018-03-17T15:47:58.676Z,94694.22
2018-03-17T15:49:39.955Z,94656.72
2018-03-17T15:51:18.411Z,94704.97
2018-03-17T15:52:55.869Z,94788.08
2018-03-17T15:54:33.131Z,94785.63
2018-03-17T15:56:11.027Z,94695.52
2018-03-17T15:57:48.971Z,94684.35
2018-03-17T15:59:27.195Z,94646.81
2018-03-17T16:01:04.533Z,94652.28
2018-03-17T16:02:41.569Z,94709.59
2018-03-17T16:04:18.664Z,94746.27
2018-03-17T16:05:56.148Z,94685.28
2018-03-17T16:07:33.158Z,94672.47
2018-03-17T16:09:13.645Z,94635.43
2018-03-17T16:10:50.964Z,94600.00
2018-03-17T16:12:28.426Z,94630.19
2018-03-17T16:14:05.453Z,94630.69
2018-03-17T16:15:43.401Z,94605.46
2018-03-17T16:17:20.496Z,94705.69
2018-03-17T16:18:57.645Z,94750.94
2018-03-17T16:20:35.032Z,94681.83
2018-03-17T16:22:12.057Z,94659.28
2018-03-17T16:23:50.322Z,94642.07
2018-03-17T16:25:27.317Z,94671.63
2018-03-17T16:27:04.453Z,94752.23
2018-03-17T16:28:41.657Z,94707.91
2018-03-17T16:30:20.838Z,94717.66
2018-03-17T16:31:58.644Z,94699.80
2018-03-17T16:33:35.937Z,94735.17
2018-03-17T16:35:14.888Z,94768.88
2018-03-17T16:36:52.355Z,94746.23
2018-03-17T16:38:30.395Z,94672.84
2018-03-17T16:40:07.935Z,94672.42
2018-03-17T16:41:45.095Z,94647.27
2018-03-17T16:43:22.404Z,94555.61
2018-03-17T16:44:59.688Z,94554.77
2018-03-17T16:46:37.702Z,94558.16
2018-03-17T16:48:14.892Z,94524.47
2018-03-17T16:49:53.540Z,94521.06
2018-03-17T16:51:31.106Z,94574.44
2018-03-17T16:53:10.082Z,94586.70
2018-03-17T16:54:48.583Z,94591.90
2018-03-17T16:56:26.369Z,94550.91
2018-03-17T16:58:04.251Z,94532.77
2018-03-17T16:59:42.228Z,94552.28
2018-03-17T17:01:21.459Z,94542.84
2018-03-17T17:02:59.017Z,94669.06
2018-03-17T17:04:37.138Z,94663.48
2018-03-17T17:06:16.671Z,94657.44
2018-03-17T17:07:55.170Z,94672.84
2018-03-17T17:09:32.973Z,94648.57
2018-03-17T17:11:11.349Z,94638.25
2018-03-17T17:12:48.422Z,94568.74
2018-03-17T17:14:26.346Z,94598.20
2018-03-17T17:16:05.067Z,94689.48
2018-03-17T17:17:43.072Z,94745.69
2018-03-17T17:19:21.465Z,94655.72
2018-03-17T17:20:59.599Z,94662.56
2018-03-17T17:22:37.891Z,94747.11
2018-03-17T17:24:15.139Z,94651.52
2018-03-17T17:25:52.701Z,94560.67
2018-03-17T17:27:30.495Z,94632.41
2018-03-17T17:29:07.727Z,94629.72
2018-03-17T17:30:45.678Z,94601.18
2018-03-17T17:32:23.221Z,94543.59
2018-03-17T17:34:00.358Z,94541.08
2018-03-17T17:35:38.973Z,94554.34
2018-03-17T17:37:16.974Z,94518.47
2018-03-17T17:38:54.453Z,94494.98
2018-03-17T17:40:31.988Z,94567.36
2018-03-17T17:42:10.807Z,94512.01
2018-03-17T17:43:47.943Z,94484.79
2018-03-17T17:45:27.441Z,94469.48
2018-03-17T17:47:05.192Z,94503.16
2018-03-17T17:48:42.330Z,94513.81
2018-03-17T17:50:19.474Z,94528.37
2018-03-17T17:51:56.752Z,94661.26
2018-03-17T17:53:33.887Z,94630.95
2018-03-17T17:55:11.155Z,94574.36
2018-03-17T17:56:48.349Z,94535.46
2018-03-17T17:58:26.622Z,94512.89
2018-03-17T18:00:05.428Z,94525.23
2018-03-17T18:01:45.621Z,94521.53
2018-03-17T18:03:23.888Z,94493.30
2018-03-17T18:05:01.419Z,94539.78
2018-03-17T18:06:38.311Z,94531.69
2018-03-17T18:08:15.348Z,94506.98
2018-03-17T18:09:53.190Z,94480.84
2018-03-17T18:11:30.439Z,94489.41
2018-03-17T18:13:07.567Z,94544.41
2018-03-17T18:14:44.743Z,94620.32
2018-03-17T18:16:22.166Z,94549.48
2018-03-17T18:17:59.572Z,94510.33
2018-03-17T18:19:36.640Z,94515.87
2018-03-17T18:21:14.719Z,94513.77
2018-03-17T18:22:52.246Z,94565.80
2018-03-17T18:24:30.399Z,94528.63
2018-03-17T18:26:08.166Z,94561.89
2018-03-17T18:27:47.627Z,94613.91
2018-03-17T18:29:26.948Z,94638.25
2018-03-17T18:31:05.299Z,94612.23
2018-03-17T18:32:42.682Z,94554.17
2018-03-17T18:34:20.462Z,94554.64
2018-03-17T18:35:57.460Z,94558.92
2018-03-17T18:37:34.711Z,94590.14
2018-03-17T18:39:12.736Z,94514.52
2018-03-17T18:40:50.181Z,94491.16
2018-03-17T18:42:27.226Z,94475.34
2018-03-17T18:44:04.254Z,94481.31
2018-03-17T18:45:41.533Z,94526.57
2018-03-17T18:47:18.828Z,94567.86
2018-03-17T18:48:56.424Z,94715.02
2018-03-17T18:50:34.238Z,94653.50
2018-03-17T18:52:11.401Z,94604.95
2018-03-17T18:53:48.548Z,94618.56
2018-03-17T18:55:26.171Z,94568.28
2018-03-17T18:57:03.146Z,94558.41
2018-03-17T18:58:40.251Z,94574.28
2018-03-17T19:00:18.917Z,94602.48
2018-03-17T19:01:57.315Z,94584.94
2018-03-17T19:03:34.308Z,94665.45
2018-03-17T19:05:12.085Z,94686.75
2018-03-17T19:06:50.099Z,94770.02
2018-03-17T19:08:26.956Z,94785.44
2018-03-17T19:10:04.070Z,94765.81
2018-03-17T19:11:41.159Z,94748.71
2018-03-17T19:13:18.682Z,94732.45
2018-03-17T19:14:55.684Z,94690.66
2018-03-17T19:16:33.168Z,94603.23
2018-03-17T19:18:10.339Z,94601.56
2018-03-17T19:19:47.928Z,94624.56
2018-03-17T19:21:25.001Z,94676.13
2018-03-17T19:23:02.873Z,94671.01
2018-03-17T19:24:39.897Z,94753.72